Terminal Aerodrome Forecast
Issued by NWS Twin Cities, MN

Home | Current Version | Previous Version | Text Only | Print | Product List | Glossary Off
Versions: 1 2 3 4 5 6 7 8 9 10 11 12 13 14 15 16 17 18 19

090
FTUS43 KMPX 260520
TAFSTC
TAF
KSTC 260520Z 2606/2706 25005KT P6SM SKC
     FM261000 20004KT P6SM SCT090
     FM261600 23008KT P6SM SCT250
     FM270200 VRB04KT P6SM SCT250=

USA.gov is the U.S. government's official web portal to all federal, state and local government web resources and services.